sensor_id;sensor_type;location;lat;lon;timestamp;temperature;humidity
42109;DHT22;27765;51.228;7.626;2022-07-18T00:00:15;14.30;99.90
42109;DHT22;27765;51.228;7.626;2022-07-18T00:03:01;14.30;99.90
42109;DHT22;27765;51.228;7.626;2022-07-18T00:05:47;14.20;99.90
42109;DHT22;27765;51.228;7.626;2022-07-18T00:08:33;14.20;99.90
42109;DHT22;27765;51.228;7.626;2022-07-18T00:11:19;14.20;99.90
42109;DHT22;27765;51.228;7.626;2022-07-18T00:14:05;14.20;99.90
42109;DHT22;27765;51.228;7.626;2022-07-18T00:16:51;14.20;99.90
42109;DHT22;27765;51.228;7.626;2022-07-18T00:19:38;14.20;99.90
42109;DHT22;27765;51.228;7.626;2022-07-18T00:22:24;14.10;99.90
42109;DHT22;27765;51.228;7.626;2022-07-18T00:25:10;14.10;99.90
42109;DHT22;27765;51.228;7.626;2022-07-18T00:27:56;14.10;99.90
42109;DHT22;27765;51.228;7.626;2022-07-18T00:30:43;14.10;99.90
42109;DHT22;27765;51.228;7.626;2022-07-18T00:33:29;14.10;99.90
42109;DHT22;27765;51.228;7.626;2022-07-18T00:36:15;14.10;99.90
42109;DHT22;27765;51.228;7.626;2022-07-18T00:39:02;14.10;99.90
42109;DHT22;27765;51.228;7.626;2022-07-18T00:41:48;14.00;99.90
42109;DHT22;27765;51.228;7.626;2022-07-18T00:44:34;14.10;99.90
42109;DHT22;27765;51.228;7.626;2022-07-18T00:47:20;14.10;99.90
42109;DHT22;27765;51.228;7.626;2022-07-18T00:50:07;14.10;99.90
42109;DHT22;27765;51.228;7.626;2022-07-18T00:52:54;14.00;99.90
42109;DHT22;27765;51.228;7.626;2022-07-18T00:55:42;13.90;99.90
42109;DHT22;27765;51.228;7.626;2022-07-18T00:58:29;13.90;99.90
42109;DHT22;27765;51.228;7.626;2022-07-18T01:01:15;13.90;99.90
42109;DHT22;27765;51.228;7.626;2022-07-18T01:04:22;13.90;99.90
42109;DHT22;27765;51.228;7.626;2022-07-18T01:07:09;13.90;99.90
42109;DHT22;27765;51.228;7.626;2022-07-18T01:09:55;14.00;99.90
42109;DHT22;27765;51.228;7.626;2022-07-18T01:12:41;14.00;99.90
42109;DHT22;27765;51.228;7.626;2022-07-18T01:15:27;14.00;99.90
42109;DHT22;27765;51.228;7.626;2022-07-18T01:18:13;13.90;99.90
42109;DHT22;27765;51.228;7.626;2022-07-18T01:20:59;13.80;99.90
42109;DHT22;27765;51.228;7.626;2022-07-18T01:23:45;13.70;99.90
42109;DHT22;27765;51.228;7.626;2022-07-18T01:26:31;13.60;99.90
42109;DHT22;27765;51.228;7.626;2022-07-18T01:29:17;13.60;99.90
42109;DHT22;27765;51.228;7.626;2022-07-18T01:32:07;13.60;99.90
42109;DHT22;27765;51.228;7.626;2022-07-18T01:34:53;13.60;99.90
42109;DHT22;27765;51.228;7.626;2022-07-18T01:37:39;13.50;99.90
42109;DHT22;27765;51.228;7.626;2022-07-18T01:40:25;13.40;99.90
42109;DHT22;27765;51.228;7.626;2022-07-18T01:43:11;13.40;99.90
42109;DHT22;27765;51.228;7.626;2022-07-18T01:45:57;13.30;99.90
42109;DHT22;27765;51.228;7.626;2022-07-18T01:48:44;13.30;99.90
42109;DHT22;27765;51.228;7.626;2022-07-18T01:51:30;13.30;99.90
42109;DHT22;27765;51.228;7.626;2022-07-18T01:54:22;13.30;99.90
42109;DHT22;27765;51.228;7.626;2022-07-18T01:57:08;13.20;99.90
42109;DHT22;27765;51.228;7.626;2022-07-18T01:59:54;13.10;99.90
42109;DHT22;27765;51.228;7.626;2022-07-18T02:02:40;13.00;99.90
42109;DHT22;27765;51.228;7.626;2022-07-18T02:05:26;12.90;99.90
42109;DHT22;27765;51.228;7.626;2022-07-18T02:08:12;12.90;99.90
42109;DHT22;27765;51.228;7.626;2022-07-18T02:10:58;12.90;99.90
42109;DHT22;27765;51.228;7.626;2022-07-18T02:13:44;12.80;99.90
42109;DHT22;27765;51.228;7.626;2022-07-18T02:16:31;12.80;99.90
42109;DHT22;27765;51.228;7.626;2022-07-18T02:19:17;12.80;99.90
42109;DHT22;27765;51.228;7.626;2022-07-18T02:22:03;12.90;99.90
42109;DHT22;27765;51.228;7.626;2022-07-18T02:24:49;12.80;99.90
42109;DHT22;27765;51.228;7.626;2022-07-18T02:27:35;12.80;99.90
42109;DHT22;27765;51.228;7.626;2022-07-18T02:30:21;12.70;99.90
42109;DHT22;27765;51.228;7.626;2022-07-18T02:33:07;12.70;99.90
42109;DHT22;27765;51.228;7.626;2022-07-18T02:35:53;12.70;99.90
42109;DHT22;27765;51.228;7.626;2022-07-18T02:38:39;12.70;99.90
42109;DHT22;27765;51.228;7.626;2022-07-18T02:41:25;12.70;99.90
42109;DHT22;27765;51.228;7.626;2022-07-18T02:44:11;12.70;99.90
42109;DHT22;27765;51.228;7.626;2022-07-18T02:46:57;12.70;99.90
42109;DHT22;27765;51.228;7.626;2022-07-18T02:49:43;12.70;99.90
42109;DHT22;27765;51.228;7.626;2022-07-18T02:52:29;12.60;99.90
42109;DHT22;27765;51.228;7.626;2022-07-18T02:55:16;12.50;99.90
42109;DHT22;27765;51.228;7.626;2022-07-18T02:58:01;12.50;99.90
42109;DHT22;27765;51.228;7.626;2022-07-18T03:00:47;12.50;99.90
42109;DHT22;27765;51.228;7.626;2022-07-18T03:03:33;12.50;99.90
42109;DHT22;27765;51.228;7.626;2022-07-18T03:06:19;12.50;99.90
42109;DHT22;27765;51.228;7.626;2022-07-18T03:09:05;12.40;99.90
42109;DHT22;27765;51.228;7.626;2022-07-18T03:11:51;12.30;99.90
42109;DHT22;27765;51.228;7.626;2022-07-18T03:14:37;12.40;99.90
42109;DHT22;27765;51.228;7.626;2022-07-18T03:17:23;12.40;99.90
42109;DHT22;27765;51.228;7.626;2022-07-18T03:20:09;12.40;99.90
42109;DHT22;27765;51.228;7.626;2022-07-18T03:22:55;12.40;99.90
42109;DHT22;27765;51.228;7.626;2022-07-18T03:25:41;12.40;99.90
42109;DHT22;27765;51.228;7.626;2022-07-18T03:28:27;12.30;99.90
42109;DHT22;27765;51.228;7.626;2022-07-18T03:31:13;12.30;99.90
42109;DHT22;27765;51.228;7.626;2022-07-18T03:34:00;12.30;99.90
42109;DHT22;27765;51.228;7.626;2022-07-18T03:36:46;12.30;99.90
42109;DHT22;27765;51.228;7.626;2022-07-18T03:39:32;12.30;99.90
42109;DHT22;27765;51.228;7.626;2022-07-18T03:42:18;12.30;99.90
42109;DHT22;27765;51.228;7.626;2022-07-18T03:45:05;12.40;99.90
42109;DHT22;27765;51.228;7.626;2022-07-18T03:47:51;12.40;99.90
42109;DHT22;27765;51.228;7.626;2022-07-18T03:50:37;12.30;99.90
42109;DHT22;27765;51.228;7.626;2022-07-18T03:53:23;12.30;99.90
42109;DHT22;27765;51.228;7.626;2022-07-18T03:56:09;12.30;99.90
42109;DHT22;27765;51.228;7.626;2022-07-18T03:58:55;12.40;99.90
42109;DHT22;27765;51.228;7.626;2022-07-18T04:01:41;12.40;99.90
42109;DHT22;27765;51.228;7.626;2022-07-18T04:04:27;12.40;99.90
42109;DHT22;27765;51.228;7.626;2022-07-18T04:07:13;12.50;99.90
42109;DHT22;27765;51.228;7.626;2022-07-18T04:09:59;12.50;99.90
42109;DHT22;27765;51.228;7.626;2022-07-18T04:12:52;12.50;99.90
42109;DHT22;27765;51.228;7.626;2022-07-18T04:15:40;12.60;99.90
42109;DHT22;27765;51.228;7.626;2022-07-18T04:18:26;12.60;99.90
42109;DHT22;27765;51.228;7.626;2022-07-18T04:21:13;12.60;99.90
42109;DHT22;27765;51.228;7.626;2022-07-18T04:23:59;12.70;99.90
42109;DHT22;27765;51.228;7.626;2022-07-18T04:26:44;12.70;99.90
42109;DHT22;27765;51.228;7.626;2022-07-18T04:29:30;12.70;99.90
42109;DHT22;27765;51.228;7.626;2022-07-18T04:32:17;12.70;99.90
42109;DHT22;27765;51.228;7.626;2022-07-18T04:35:04;12.80;99.90
42109;DHT22;27765;51.228;7.626;2022-07-18T04:37:51;12.80;99.90
42109;DHT22;27765;51.228;7.626;2022-07-18T04:40:37;12.90;99.90
42109;DHT22;27765;51.228;7.626;2022-07-18T04:43:23;12.90;99.90
42109;DHT22;27765;51.228;7.626;2022-07-18T04:46:09;13.00;99.90
42109;DHT22;27765;51.228;7.626;2022-07-18T04:48:55;13.00;99.90
42109;DHT22;27765;51.228;7.626;2022-07-18T04:51:41;13.10;99.90
42109;DHT22;27765;51.228;7.626;2022-07-18T04:54:27;13.20;99.90
42109;DHT22;27765;51.228;7.626;2022-07-18T04:57:13;13.20;99.90
42109;DHT22;27765;51.228;7.626;2022-07-18T05:00:03;13.30;99.90
42109;DHT22;27765;51.228;7.626;2022-07-18T05:02:51;13.40;99.90
42109;DHT22;27765;51.228;7.626;2022-07-18T05:05:37;13.40;99.90
42109;DHT22;27765;51.228;7.626;2022-07-18T05:08:23;13.60;99.90
42109;DHT22;27765;51.228;7.626;2022-07-18T05:11:09;13.70;99.90
42109;DHT22;27765;51.228;7.626;2022-07-18T05:13:55;13.80;99.90
42109;DHT22;27765;51.228;7.626;2022-07-18T05:16:41;13.90;99.90
42109;DHT22;27765;51.228;7.626;2022-07-18T05:19:27;14.10;99.90
42109;DHT22;27765;51.228;7.626;2022-07-18T05:22:13;14.20;99.90
42109;DHT22;27765;51.228;7.626;2022-07-18T05:25:00;14.40;99.90
42109;DHT22;27765;51.228;7.626;2022-07-18T05:27:46;14.50;99.90
42109;DHT22;27765;51.228;7.626;2022-07-18T05:30:32;14.60;99.90
42109;DHT22;27765;51.228;7.626;2022-07-18T05:33:18;14.60;99.90
42109;DHT22;27765;51.228;7.626;2022-07-18T05:36:04;14.80;99.90
42109;DHT22;27765;51.228;7.626;2022-07-18T05:38:50;14.90;99.90
42109;DHT22;27765;51.228;7.626;2022-07-18T05:41:16;15.10;99.90
42109;DHT22;27765;51.228;7.626;2022-07-18T05:43:42;15.30;99.90
42109;DHT22;27765;51.228;7.626;2022-07-18T05:46:08;15.60;99.90
42109;DHT22;27765;51.228;7.626;2022-07-18T05:48:34;16.00;99.90
42109;DHT22;27765;51.228;7.626;2022-07-18T05:51:00;17.40;99.90
42109;DHT22;27765;51.228;7.626;2022-07-18T05:53:26;19.00;99.90
42109;DHT22;27765;51.228;7.626;2022-07-18T05:55:52;20.40;99.90
42109;DHT22;27765;51.228;7.626;2022-07-18T05:58:18;21.70;99.90
42109;DHT22;27765;51.228;7.626;2022-07-18T06:00:44;22.50;99.40
42109;DHT22;27765;51.228;7.626;2022-07-18T06:03:11;22.80;97.90
42109;DHT22;27765;51.228;7.626;2022-07-18T06:05:37;22.60;97.30
42109;DHT22;27765;51.228;7.626;2022-07-18T06:08:03;22.40;97.20
42109;DHT22;27765;51.228;7.626;2022-07-18T06:10:29;22.40;97.50
42109;DHT22;27765;51.228;7.626;2022-07-18T06:12:55;23.20;97.10
42109;DHT22;27765;51.228;7.626;2022-07-18T06:15:22;24.20;95.50
42109;DHT22;27765;51.228;7.626;2022-07-18T06:17:48;25.10;93.40
42109;DHT22;27765;51.228;7.626;2022-07-18T06:20:14;25.90;92.90
42109;DHT22;27765;51.228;7.626;2022-07-18T06:22:40;26.80;91.70
42109;DHT22;27765;51.228;7.626;2022-07-18T06:25:06;27.60;88.30
42109;DHT22;27765;51.228;7.626;2022-07-18T06:27:32;28.10;85.70
42109;DHT22;27765;51.228;7.626;2022-07-18T06:29:58;28.70;84.90
42109;DHT22;27765;51.228;7.626;2022-07-18T06:32:25;29.30;77.00
42109;DHT22;27765;51.228;7.626;2022-07-18T06:34:51;30.00;73.30
42109;DHT22;27765;51.228;7.626;2022-07-18T06:37:17;30.60;65.80
42109;DHT22;27765;51.228;7.626;2022-07-18T06:39:42;30.70;59.70
42109;DHT22;27765;51.228;7.626;2022-07-18T06:42:08;31.30;55.30
42109;DHT22;27765;51.228;7.626;2022-07-18T06:44:34;31.50;48.90
42109;DHT22;27765;51.228;7.626;2022-07-18T06:47:00;31.90;47.00
42109;DHT22;27765;51.228;7.626;2022-07-18T06:49:26;32.60;46.60
42109;DHT22;27765;51.228;7.626;2022-07-18T06:51:52;32.30;44.90
42109;DHT22;27765;51.228;7.626;2022-07-18T06:54:18;32.90;43.80
42109;DHT22;27765;51.228;7.626;2022-07-18T06:56:46;32.50;43.00
42109;DHT22;27765;51.228;7.626;2022-07-18T06:59:12;32.00;42.10
42109;DHT22;27765;51.228;7.626;2022-07-18T07:01:38;32.50;42.10
42109;DHT22;27765;51.228;7.626;2022-07-18T07:04:04;33.10;40.80
42109;DHT22;27765;51.228;7.626;2022-07-18T07:06:30;33.70;39.20
42109;DHT22;27765;51.228;7.626;2022-07-18T07:08:56;33.80;39.80
42109;DHT22;27765;51.228;7.626;2022-07-18T07:11:22;33.50;39.70
42109;DHT22;27765;51.228;7.626;2022-07-18T07:13:48;33.10;39.50
42109;DHT22;27765;51.228;7.626;2022-07-18T07:16:18;34.00;38.90
42109;DHT22;27765;51.228;7.626;2022-07-18T07:18:44;33.70;38.60
42109;DHT22;27765;51.228;7.626;2022-07-18T07:21:11;33.50;39.00
42109;DHT22;27765;51.228;7.626;2022-07-18T07:23:37;33.10;39.00
42109;DHT22;27765;51.228;7.626;2022-07-18T07:26:03;32.90;38.90
42109;DHT22;27765;51.228;7.626;2022-07-18T07:28:30;33.00;39.30
42109;DHT22;27765;51.228;7.626;2022-07-18T07:30:56;33.40;39.20
42109;DHT22;27765;51.228;7.626;2022-07-18T07:33:22;33.80;38.80
42109;DHT22;27765;51.228;7.626;2022-07-18T07:35:48;34.00;37.80
42109;DHT22;27765;51.228;7.626;2022-07-18T07:38:14;34.30;37.50
42109;DHT22;27765;51.228;7.626;2022-07-18T07:40:44;34.10;37.40
42109;DHT22;27765;51.228;7.626;2022-07-18T07:43:13;34.00;36.40
42109;DHT22;27765;51.228;7.626;2022-07-18T07:45:40;32.40;37.30
42109;DHT22;27765;51.228;7.626;2022-07-18T07:48:07;32.10;38.10
42109;DHT22;27765;51.228;7.626;2022-07-18T07:50:33;32.80;37.90
42109;DHT22;27765;51.228;7.626;2022-07-18T07:52:59;32.80;37.70
42109;DHT22;27765;51.228;7.626;2022-07-18T07:55:26;33.30;37.30
42109;DHT22;27765;51.228;7.626;2022-07-18T07:57:52;32.80;37.20
42109;DHT22;27765;51.228;7.626;2022-07-18T08:00:18;33.10;36.90
42109;DHT22;27765;51.228;7.626;2022-07-18T08:02:56;32.30;37.30
42109;DHT22;27765;51.228;7.626;2022-07-18T08:05:22;33.00;36.40
42109;DHT22;27765;51.228;7.626;2022-07-18T08:07:48;33.60;36.40
42109;DHT22;27765;51.228;7.626;2022-07-18T08:10:15;34.00;35.10
42109;DHT22;27765;51.228;7.626;2022-07-18T08:12:41;33.40;35.50
42109;DHT22;27765;51.228;7.626;2022-07-18T08:15:08;32.90;36.10
42109;DHT22;27765;51.228;7.626;2022-07-18T08:17:34;33.60;35.30
42109;DHT22;27765;51.228;7.626;2022-07-18T08:20:01;33.90;35.00
42109;DHT22;27765;51.228;7.626;2022-07-18T08:22:27;34.10;35.10
42109;DHT22;27765;51.228;7.626;2022-07-18T08:24:53;34.90;35.20
42109;DHT22;27765;51.228;7.626;2022-07-18T08:27:19;35.10;34.90
42109;DHT22;27765;51.228;7.626;2022-07-18T08:29:45;35.10;34.40
42109;DHT22;27765;51.228;7.626;2022-07-18T08:32:10;34.10;34.20
42109;DHT22;27765;51.228;7.626;2022-07-18T08:34:36;35.20;34.20
42109;DHT22;27765;51.228;7.626;2022-07-18T08:37:02;35.50;33.60
42109;DHT22;27765;51.228;7.626;2022-07-18T08:39:27;35.30;32.90
42109;DHT22;27765;51.228;7.626;2022-07-18T08:41:54;35.00;33.90
42109;DHT22;27765;51.228;7.626;2022-07-18T08:44:21;33.90;33.70
42109;DHT22;27765;51.228;7.626;2022-07-18T08:46:51;35.30;33.80
42109;DHT22;27765;51.228;7.626;2022-07-18T08:49:17;35.90;33.40
42109;DHT22;27765;51.228;7.626;2022-07-18T08:51:44;35.20;32.90
42109;DHT22;27765;51.228;7.626;2022-07-18T08:54:10;35.10;34.20
42109;DHT22;27765;51.228;7.626;2022-07-18T08:56:37;35.70;33.00
42109;DHT22;27765;51.228;7.626;2022-07-18T08:59:04;36.40;32.40
42109;DHT22;27765;51.228;7.626;2022-07-18T09:01:30;36.90;32.50
42109;DHT22;27765;51.228;7.626;2022-07-18T09:03:57;35.10;32.10
42109;DHT22;27765;51.228;7.626;2022-07-18T09:06:51;34.90;33.10
42109;DHT22;27765;51.228;7.626;2022-07-18T09:09:20;35.10;32.60
42109;DHT22;27765;51.228;7.626;2022-07-18T09:11:58;35.10;32.40
42109;DHT22;27765;51.228;7.626;2022-07-18T09:14:35;36.00;32.20
42109;DHT22;27765;51.228;7.626;2022-07-18T09:17:05;35.90;31.20
42109;DHT22;27765;51.228;7.626;2022-07-18T09:19:31;35.20;33.20
42109;DHT22;27765;51.228;7.626;2022-07-18T09:22:24;35.80;31.70
42109;DHT22;27765;51.228;7.626;2022-07-18T09:25:00;37.80;30.50
42109;DHT22;27765;51.228;7.626;2022-07-18T09:27:37;37.60;30.50
42109;DHT22;27765;51.228;7.626;2022-07-18T09:35:24;36.80;31.40
42109;DHT22;27765;51.228;7.626;2022-07-18T09:38:10;34.70;31.50
42109;DHT22;27765;51.228;7.626;2022-07-18T09:40:39;35.00;32.00
42109;DHT22;27765;51.228;7.626;2022-07-18T09:43:07;35.50;31.60
42109;DHT22;27765;51.228;7.626;2022-07-18T09:45:36;35.60;31.80
42109;DHT22;27765;51.228;7.626;2022-07-18T09:48:07;36.90;31.60
42109;DHT22;27765;51.228;7.626;2022-07-18T09:53:27;36.40;30.30
42109;DHT22;27765;51.228;7.626;2022-07-18T09:56:06;35.60;30.70
42109;DHT22;27765;51.228;7.626;2022-07-18T09:58:56;35.80;31.10
42109;DHT22;27765;51.228;7.626;2022-07-18T10:01:21;36.90;30.20
42109;DHT22;27765;51.228;7.626;2022-07-18T10:03:48;37.10;29.70
42109;DHT22;27765;51.228;7.626;2022-07-18T10:06:16;36.50;30.00
42109;DHT22;27765;51.228;7.626;2022-07-18T10:08:42;36.90;30.10
42109;DHT22;27765;51.228;7.626;2022-07-18T10:11:09;37.10;28.90
42109;DHT22;27765;51.228;7.626;2022-07-18T10:13:37;35.60;29.30
42109;DHT22;27765;51.228;7.626;2022-07-18T10:16:04;35.40;30.30
42109;DHT22;27765;51.228;7.626;2022-07-18T10:18:32;36.00;29.80
42109;DHT22;27765;51.228;7.626;2022-07-18T10:23:34;37.10;29.20
42109;DHT22;27765;51.228;7.626;2022-07-18T10:26:17;37.70;29.60
42109;DHT22;27765;51.228;7.626;2022-07-18T10:31:27;38.80;28.70
42109;DHT22;27765;51.228;7.626;2022-07-18T10:36:40;38.30;28.90
42109;DHT22;27765;51.228;7.626;2022-07-18T11:02:31;39.10;27.50
42109;DHT22;27765;51.228;7.626;2022-07-18T11:04:58;38.60;28.90
42109;DHT22;27765;51.228;7.626;2022-07-18T11:07:25;39.70;28.10
42109;DHT22;27765;51.228;7.626;2022-07-18T11:09:51;40.40;27.30
42109;DHT22;27765;51.228;7.626;2022-07-18T11:12:28;40.40;27.10
42109;DHT22;27765;51.228;7.626;2022-07-18T11:14:59;40.10;27.50
42109;DHT22;27765;51.228;7.626;2022-07-18T11:22:51;40.00;27.70
42109;DHT22;27765;51.228;7.626;2022-07-18T11:25:18;39.60;27.60
42109;DHT22;27765;51.228;7.626;2022-07-18T11:27:44;39.60;28.40
42109;DHT22;27765;51.228;7.626;2022-07-18T11:30:16;40.80;28.00
42109;DHT22;27765;51.228;7.626;2022-07-18T11:32:43;42.10;27.70
42109;DHT22;27765;51.228;7.626;2022-07-18T11:35:09;41.80;26.40
42109;DHT22;27765;51.228;7.626;2022-07-18T11:37:36;40.40;26.90
42109;DHT22;27765;51.228;7.626;2022-07-18T11:40:07;39.60;28.20
42109;DHT22;27765;51.228;7.626;2022-07-18T11:42:38;38.60;27.80
42109;DHT22;27765;51.228;7.626;2022-07-18T11:45:05;38.80;27.40
42109;DHT22;27765;51.228;7.626;2022-07-18T11:47:31;39.00;27.80
42109;DHT22;27765;51.228;7.626;2022-07-18T11:50:02;39.00;27.70
42109;DHT22;27765;51.228;7.626;2022-07-18T11:52:28;38.70;27.70
42109;DHT22;27765;51.228;7.626;2022-07-18T11:54:54;38.80;28.10
42109;DHT22;27765;51.228;7.626;2022-07-18T11:57:30;38.40;27.60
42109;DHT22;27765;51.228;7.626;2022-07-18T11:59:56;39.10;27.80
42109;DHT22;27765;51.228;7.626;2022-07-18T12:05:37;40.90;27.80
42109;DHT22;27765;51.228;7.626;2022-07-18T12:08:35;41.90;27.20
42109;DHT22;27765;51.228;7.626;2022-07-18T12:16:40;39.80;27.30
42109;DHT22;27765;51.228;7.626;2022-07-18T12:19:37;40.30;27.20
42109;DHT22;27765;51.228;7.626;2022-07-18T12:24:53;39.40;28.00
42109;DHT22;27765;51.228;7.626;2022-07-18T12:35:07;38.40;27.80
42109;DHT22;27765;51.228;7.626;2022-07-18T12:37:33;37.60;28.20
42109;DHT22;27765;51.228;7.626;2022-07-18T12:40:01;37.40;28.40
42109;DHT22;27765;51.228;7.626;2022-07-18T12:42:37;37.10;28.90
42109;DHT22;27765;51.228;7.626;2022-07-18T12:45:04;36.90;29.80
42109;DHT22;27765;51.228;7.626;2022-07-18T12:47:30;37.50;29.20
42109;DHT22;27765;51.228;7.626;2022-07-18T12:49:57;37.50;28.40
42109;DHT22;27765;51.228;7.626;2022-07-18T12:52:24;37.00;29.20
42109;DHT22;27765;51.228;7.626;2022-07-18T12:54:50;37.40;29.20
42109;DHT22;27765;51.228;7.626;2022-07-18T12:57:17;38.40;29.20
42109;DHT22;27765;51.228;7.626;2022-07-18T12:59:43;38.80;29.00
42109;DHT22;27765;51.228;7.626;2022-07-18T13:02:10;39.90;28.50
42109;DHT22;27765;51.228;7.626;2022-07-18T13:04:37;39.70;28.20
42109;DHT22;27765;51.228;7.626;2022-07-18T13:07:03;38.30;28.60
42109;DHT22;27765;51.228;7.626;2022-07-18T13:09:29;36.80;29.10
42109;DHT22;27765;51.228;7.626;2022-07-18T13:11:56;35.80;29.70
42109;DHT22;27765;51.228;7.626;2022-07-18T13:14:22;36.50;30.20
42109;DHT22;27765;51.228;7.626;2022-07-18T13:16:47;37.30;29.40
42109;DHT22;27765;51.228;7.626;2022-07-18T13:19:16;37.90;30.20
42109;DHT22;27765;51.228;7.626;2022-07-18T13:21:43;38.90;29.70
42109;DHT22;27765;51.228;7.626;2022-07-18T13:24:10;39.70;29.40
42109;DHT22;27765;51.228;7.626;2022-07-18T13:26:36;39.40;28.30
42109;DHT22;27765;51.228;7.626;2022-07-18T13:29:04;38.60;28.30
42109;DHT22;27765;51.228;7.626;2022-07-18T13:31:30;37.50;29.10
42109;DHT22;27765;51.228;7.626;2022-07-18T13:33:56;37.40;29.50
42109;DHT22;27765;51.228;7.626;2022-07-18T13:36:22;37.80;29.60
42109;DHT22;27765;51.228;7.626;2022-07-18T13:38:49;38.10;28.80
42109;DHT22;27765;51.228;7.626;2022-07-18T13:41:15;38.10;29.80
42109;DHT22;27765;51.228;7.626;2022-07-18T13:43:41;38.90;29.20
42109;DHT22;27765;51.228;7.626;2022-07-18T13:46:09;38.50;28.80
42109;DHT22;27765;51.228;7.626;2022-07-18T13:48:36;36.80;29.20
42109;DHT22;27765;51.228;7.626;2022-07-18T13:51:03;35.60;29.60
42109;DHT22;27765;51.228;7.626;2022-07-18T13:53:29;35.90;30.80
42109;DHT22;27765;51.228;7.626;2022-07-18T13:55:55;35.70;30.00
42109;DHT22;27765;51.228;7.626;2022-07-18T13:58:21;36.50;30.60
42109;DHT22;27765;51.228;7.626;2022-07-18T14:00:48;36.10;29.70
42109;DHT22;27765;51.228;7.626;2022-07-18T14:03:14;35.60;30.10
42109;DHT22;27765;51.228;7.626;2022-07-18T14:05:40;35.90;31.60
42109;DHT22;27765;51.228;7.626;2022-07-18T14:08:08;35.20;30.20
42109;DHT22;27765;51.228;7.626;2022-07-18T14:10:34;35.50;30.30
42109;DHT22;27765;51.228;7.626;2022-07-18T14:13:01;35.40;30.50
42109;DHT22;27765;51.228;7.626;2022-07-18T14:15:27;35.50;31.70
42109;DHT22;27765;51.228;7.626;2022-07-18T14:17:53;35.80;30.60
42109;DHT22;27765;51.228;7.626;2022-07-18T14:20:20;35.90;31.30
42109;DHT22;27765;51.228;7.626;2022-07-18T14:22:47;35.60;30.80
42109;DHT22;27765;51.228;7.626;2022-07-18T14:25:24;35.20;30.30
42109;DHT22;27765;51.228;7.626;2022-07-18T14:27:50;34.80;30.70
42109;DHT22;27765;51.228;7.626;2022-07-18T14:30:16;34.10;31.50
42109;DHT22;27765;51.228;7.626;2022-07-18T14:32:43;33.80;32.80
42109;DHT22;27765;51.228;7.626;2022-07-18T14:35:10;33.40;32.30
42109;DHT22;27765;51.228;7.626;2022-07-18T14:37:37;33.20;32.30
42109;DHT22;27765;51.228;7.626;2022-07-18T14:40:05;33.00;32.20
42109;DHT22;27765;51.228;7.626;2022-07-18T14:42:31;32.80;32.60
42109;DHT22;27765;51.228;7.626;2022-07-18T14:44:57;32.70;32.80
42109;DHT22;27765;51.228;7.626;2022-07-18T14:47:23;32.80;33.70
42109;DHT22;27765;51.228;7.626;2022-07-18T14:49:49;32.90;34.00
42109;DHT22;27765;51.228;7.626;2022-07-18T14:52:15;33.10;33.50
42109;DHT22;27765;51.228;7.626;2022-07-18T14:54:41;33.00;33.40
42109;DHT22;27765;51.228;7.626;2022-07-18T14:57:08;32.70;33.20
42109;DHT22;27765;51.228;7.626;2022-07-18T14:59:34;32.60;32.90
42109;DHT22;27765;51.228;7.626;2022-07-18T15:02:00;32.50;33.20
42109;DHT22;27765;51.228;7.626;2022-07-18T15:04:33;32.20;33.10
42109;DHT22;27765;51.228;7.626;2022-07-18T15:07:00;32.10;33.00
42109;DHT22;27765;51.228;7.626;2022-07-18T15:09:26;32.10;33.20
42109;DHT22;27765;51.228;7.626;2022-07-18T15:11:52;32.10;33.70
42109;DHT22;27765;51.228;7.626;2022-07-18T15:14:18;31.90;33.80
42109;DHT22;27765;51.228;7.626;2022-07-18T15:16:44;31.70;33.30
42109;DHT22;27765;51.228;7.626;2022-07-18T15:19:11;31.60;33.70
42109;DHT22;27765;51.228;7.626;2022-07-18T15:21:37;31.80;34.10
42109;DHT22;27765;51.228;7.626;2022-07-18T15:24:04;32.10;34.40
42109;DHT22;27765;51.228;7.626;2022-07-18T15:26:30;32.20;33.60
42109;DHT22;27765;51.228;7.626;2022-07-18T15:28:55;32.10;33.20
42109;DHT22;27765;51.228;7.626;2022-07-18T15:31:21;31.80;34.00
42109;DHT22;27765;51.228;7.626;2022-07-18T15:33:47;31.90;33.40
42109;DHT22;27765;51.228;7.626;2022-07-18T15:36:13;31.90;33.50
42109;DHT22;27765;51.228;7.626;2022-07-18T15:38:58;32.10;34.00
42109;DHT22;27765;51.228;7.626;2022-07-18T15:41:42;32.00;33.40
42109;DHT22;27765;51.228;7.626;2022-07-18T15:44:28;32.00;33.80
42109;DHT22;27765;51.228;7.626;2022-07-18T15:47:14;32.00;33.80
42109;DHT22;27765;51.228;7.626;2022-07-18T15:50:00;32.30;33.80
42109;DHT22;27765;51.228;7.626;2022-07-18T15:52:46;32.50;34.40
42109;DHT22;27765;51.228;7.626;2022-07-18T15:55:32;32.70;33.60
42109;DHT22;27765;51.228;7.626;2022-07-18T15:58:18;32.60;33.20
42109;DHT22;27765;51.228;7.626;2022-07-18T16:01:04;32.40;33.00
42109;DHT22;27765;51.228;7.626;2022-07-18T16:03:50;32.20;33.80
42109;DHT22;27765;51.228;7.626;2022-07-18T16:06:36;32.30;34.00
42109;DHT22;27765;51.228;7.626;2022-07-18T16:09:22;32.40;32.60
42109;DHT22;27765;51.228;7.626;2022-07-18T16:12:09;32.10;32.40
42109;DHT22;27765;51.228;7.626;2022-07-18T16:14:55;31.80;33.60
42109;DHT22;27765;51.228;7.626;2022-07-18T16:17:41;32.00;34.40
42109;DHT22;27765;51.228;7.626;2022-07-18T16:20:27;32.20;34.60
42109;DHT22;27765;51.228;7.626;2022-07-18T16:23:13;32.30;34.00
42109;DHT22;27765;51.228;7.626;2022-07-18T16:25:59;32.60;34.30
42109;DHT22;27765;51.228;7.626;2022-07-18T16:28:45;32.70;34.90
42109;DHT22;27765;51.228;7.626;2022-07-18T16:31:31;32.90;33.60
42109;DHT22;27765;51.228;7.626;2022-07-18T16:34:17;32.60;33.40
42109;DHT22;27765;51.228;7.626;2022-07-18T16:37:04;32.70;33.20
42109;DHT22;27765;51.228;7.626;2022-07-18T16:39:50;32.50;33.70
42109;DHT22;27765;51.228;7.626;2022-07-18T16:42:36;32.30;33.30
42109;DHT22;27765;51.228;7.626;2022-07-18T16:45:22;32.30;33.60
42109;DHT22;27765;51.228;7.626;2022-07-18T16:48:10;32.30;34.10
42109;DHT22;27765;51.228;7.626;2022-07-18T16:50:57;32.40;33.80
42109;DHT22;27765;51.228;7.626;2022-07-18T16:53:43;32.50;33.60
42109;DHT22;27765;51.228;7.626;2022-07-18T16:56:29;32.70;34.90
42109;DHT22;27765;51.228;7.626;2022-07-18T16:59:15;32.90;33.90
42109;DHT22;27765;51.228;7.626;2022-07-18T17:02:01;32.80;33.60
42109;DHT22;27765;51.228;7.626;2022-07-18T17:04:48;32.70;33.50
42109;DHT22;27765;51.228;7.626;2022-07-18T17:07:34;32.60;34.10
42109;DHT22;27765;51.228;7.626;2022-07-18T17:10:20;32.70;35.40
42109;DHT22;27765;51.228;7.626;2022-07-18T17:13:08;32.80;33.60
42109;DHT22;27765;51.228;7.626;2022-07-18T17:15:54;32.90;34.10
42109;DHT22;27765;51.228;7.626;2022-07-18T17:18:40;32.90;33.10
42109;DHT22;27765;51.228;7.626;2022-07-18T17:21:27;32.90;34.10
42109;DHT22;27765;51.228;7.626;2022-07-18T17:24:13;33.00;33.20
42109;DHT22;27765;51.228;7.626;2022-07-18T17:26:59;33.00;33.90